Sawyer, ND

3:29 AM CDT on July 26, 2014 (GMT -0500)
Dakota Park South Minot (KNDMINOT6) Elev 1750 ft | 48.20 °N, 101.31 °W | Change Station

Current weather conditions updated 5 seconds ago

Clear
Clear
58.1 °F
Feels Like 58.1 °F
N
3.1
Wind Variable Wind from SW
Gusts 3.8 mph

Today is forecast to be Much Cooler than yesterday.

Today
High -- | Low -- °F
--% Chance of Precip.
Yesterday
High -- | Low -- °F
Precip. -- in
6:12 AM 9:28 PM
Waning Crescent, 0% visible
Pressure 29.77 in
Visibility 10.0 miles
Clouds Clear
Dew Point 52 °F
Humidity 81%
Rainfall 0.00 in
Snow Depth Not available.
UV 0.0 out of 12
Pollen 7.10 out of 12
Air Quality Not available.
Flu Activity Not available.
METAR KMOT 260754Z AUTO 22003KT 10SM CLR 14/11 A2978 RMK AO2 SLP080 T01440106

More Conditions Fewer Conditions

Pressure 29.77 in
Visibility 10.0 miles
Clouds Clear
Dew Point 52 °F
Humidity 81%
Rainfall 0.00 in
Snow Depth Not available.
UV 0.0 out of 12
Pollen 7.10 out of 12
Air Quality Not available.
Flu Activity Not available.
METAR KMOT 260754Z AUTO 22003KT 10SM CLR 14/11 A2978 RMK AO2 SLP080 T01440106

More Conditions Fewer Conditions

10-Day Weather Forecast

Almanac

Astronomy

Jul. 26, 2014 Rise Set
Actual Time 6:12 AM CDT 9:28 PM CDT
Civil Twilight 5:35 AM CDT 10:05 PM CDT
Nautical Twilight 4:45 AM CDT 10:54 PM CDT
Astronomical Twilight 3:43 AM CDT 11:56 PM CDT
Moon 6:12 AM CDT 8:56 PM CDT
Length of Visible Light 16h 30m
Length of Day
15h 15m
Tomorrow will be 2m 30s shorter.
Waning Crescent, 0% of the Moon is Illuminated
Today
Waning Crescent
Jul 26
New
Aug 3
First Quarter
Aug 10
Full
Aug 17
Last Quarter

Today's Extremes

State Highs State Lows

Community

WunderPhotos

Upload Photos

1,737,529 photos uploaded!

Nearby

Snow Depth

Station Depth Elevation
No new snow has been reported.

Earthquake Activity

City Distance Mag. Time & Date
No recent earthquake activity has been reported nearby.
Minimum magnitude displayed is 2.5.

Coastal Water Temperatures

Place Temperature
No Stations Reporting

Nearby Weather Stations

Station Location Temp. Dew Point Humidity Wind Precip. Elev Updated Type
Dakota Park South Minot, Minot, ND 58.1 °F 52 °F 81% SW  at  3.1 mph 0.00 in / hr 1750 ft 3:28 AM CDT Rapid Fire
Why Not Minot, Minot, ND 59.7 °F 51 °F 73% WSW  at  0.0 mph - / hr 1759 ft 3:20 AM CDT Normal
Edgeview Estates, Minot, ND 59.7 °F 53 °F 80% SE  at  0.0 mph 0.00 in / hr 1752 ft 3:28 AM CDT Rapid Fire
APRSWXNET Ruso ND , Ruso, ND 58 °F 55 °F 89% ESE  at  0 mph 0.00 in / hr 2200 ft 2:12 AM CDT MADIS
Eagle's Landing, Minot, ND 56.7 °F 44 °F 63% WSW  at  3.0 mph 0.00 in / hr 1726 ft 3:28 AM CDT Rapid Fire
Olson Farm, Max, ND 59.4 °F 56 °F 88% NW  at  3.8 mph 0.00 in / hr 2008 ft 3:15 AM CDT Normal
Deering Mobile Home Estates, Deering, ND 55.0 °F 51 °F 87% South  at  2.7 mph - / hr 1549 ft 3:28 AM CDT Normal

Show More Stations Show Fewer Stations